• Join FlightAware (Why Join?)
  • Login
  • US Flag 
09:56AM EDT


 

Airport Tracker/Info


-or-


 

Live Flight TrackerFlight Track Log ✈ RPA3161 ✈ 25-Apr-2013 ✈ KBTV - KDCA

Flight Track Log - Related Links

Times and Time Zones

All times are in EDT time to prevent confusion due to time zone crossing. See the RPA3161 flight status page for this flight to view local times or setup timezone preferences in your user account.

Time Position Orientation Groundspeed Altitude Reporting Facility
EDT Latitude Longitude Course Direction KTS MPH feet Rate Location/Type
12:18PM 44.4586 -73.2253 195° South 195 224 4,400  Level Boston Center
12:19PM 44.3961 -73.2478 194° South 236 272 7,900 3,360 Climbing Boston Center
12:20PM 44.0895 -73.2915 195° South  Level FlightAware Approximate
12:20PM 44.3228 -73.2728 194° South 271 312 11,200  Level Boston Center
12:21PM 43.9942 -73.3242 194° South  Level FlightAware Approximate
12:21PM 44.2414 -73.3008 194° South 298 343 14,500  Level Boston Center
12:22PM 43.8990 -73.3567 195° South  Level FlightAware Approximate
12:22PM 44.1600 -73.3286 194° South 298 343 17,900  Level Boston Center
12:23PM 43.8043 -73.3923 195° South  Level FlightAware Approximate
12:23PM 44.0828 -73.3561 194° South 298 343 20,600  Level Boston Center
12:24PM 43.7096 -73.4277 195° South  Level FlightAware Approximate
12:24PM 43.9908 -73.3867 193° South 304 350 22,800  Level Boston Center
12:25PM 43.9175 -73.4317 204° Southwest 309 356 25,500 2,460 Climbing Boston Center
12:26PM 43.8356 -73.4906 207° Southwest 309 356 27,800 1,860 Climbing Boston Center
12:27PM 43.7581 -73.5497 209° Southwest 309 356 29,300 1,260 Climbing Boston Center
12:28PM 43.6761 -73.6083 207° Southwest 326 375 30,400 1,200 Climbing Boston Center
12:29PM 43.5925 -73.6442 197° South 335 386 31,800 1,380 Climbing Boston Center
12:31PM 43.4756 -73.6647 187° South 347 399 33,500 960 Climbing Boston Center
12:32PM 43.3772 -73.6856 189° South 359 413 34,000 240 Climbing Boston Center
12:33PM 43.2792 -73.7064 189° South 359 413 34,000  Level Boston Center
12:34PM 43.1808 -73.7242 188° South 359 413 34,000  Level Boston Center
12:35PM 43.0744 -73.7447 188° South 359 413 34,000  Level Boston Center
12:36PM 42.9764 -73.7625 188° South 359 413 34,000  Level Boston Center
12:37PM 42.8781 -73.7803 188° South 359 413 34,000  Level Boston Center
12:38PM 42.7758 -73.7978 187° South 359 413 34,000  Level Boston Center
12:39PM 42.6758 -73.7983 180° South 365 420 34,000  Level Boston Center
12:40PM 42.5739 -73.7822 173° South 370 426 34,000  Level Boston Center
12:41PM 42.4697 -73.7658 173° South 370 426 34,000  Level Boston Center
12:42PM 42.3636 -73.7494 173° South 376 433 34,000  Level Boston Center
12:43PM 42.2575 -73.7306 172° South 381 438 34,000  Level Boston Center
12:44PM 42.1536 -73.7172 175° South 386 444 34,000  Level Boston Center
12:45PM 42.0475 -73.6981 172° South 381 438 34,000  Level Boston Center
12:46PM 41.9414 -73.6822 174° South 386 444 34,000  Level Boston Center
12:47PM 41.8372 -73.6689 175° South 386 444 34,000  Level Boston Center
12:48PM 41.7333 -73.6531 174° South 386 444 34,000  Level Boston Center
12:49PM 41.6292 -73.6372 174° South 386 444 34,000  Level Boston Center
12:51PM 41.4275 -73.6017 172° South 394 453 34,000  Level New York Center
12:52PM 41.3217 -73.5917 176° South 388 447 34,000  Level New York Center
12:53PM 41.2392 -73.6461 206° Southwest 342 394 34,000  Level New York Center
12:54PM 41.1889 -73.7406 235° Southwest 331 381 34,000  Level New York Center
12:55PM 41.1322 -73.8372 232° Southwest 331 381 34,000  Level New York Center
12:56PM 41.0756 -73.9336 232° Southwest 336 387 34,000 -60 Level New York Center
12:57PM 41.0167 -74.0328 232° Southwest 343 395 33,900 -480 Descending New York Center
12:58PM 40.9578 -74.1286 231° Southwest 343 395 33,100 -780 Descending New York Center
12:59PM 40.8967 -74.2244 230° Southwest 343 395 32,400 -900 Descending New York Center
01:00PM 40.8394 -74.3231 233° Southwest 338 389 31,400 -1,020 Descending New York Center
01:01PM 40.7781 -74.4214 231° Southwest 338 389 30,400 -1,440 Descending New York Center
01:02PM 40.7208 -74.5167 232° Southwest 343 395 28,600 -1,200 Descending New York Center
01:03PM 40.6658 -74.6094 232° Southwest 338 389 28,000 -300 Descending New York Center
01:04PM 40.6089 -74.6992 230° Southwest 333 383 28,000  Level New York Center
01:05PM 40.5494 -74.7886 229° Southwest 333 383 28,000 -720 Level New York Center
01:06PM 40.4881 -74.8778 228° Southwest 333 383 26,600 -1,620 Descending New York Center
01:07PM 40.4311 -74.9592 227° Southwest 317 365 24,900 -1,680 Descending New York Center
01:08PM 40.3719 -75.0400 226° Southwest 317 365 23,200 -1,620 Descending New York Center
01:09PM 40.3167 -75.1208 228° Southwest 312 359 21,800 -1,080 Descending New York Center
01:11PM 40.2067 -75.2769 227° Southwest 306 352 20,000 -600 Descending New York Center
01:12PM 40.1494 -75.3547 226° Southwest 306 352 20,000  Level New York Center
01:13PM 40.0944 -75.4325 227° Southwest 306 352 20,000  Level New York Center
01:14PM 40.0392 -75.5075 226° Southwest 306 352 20,000  Level New York Center
01:15PM 39.9817 -75.5875 227° Southwest 306 352 20,000  Level New York Center
01:16PM 39.9264 -75.6650 227° Southwest 306 352 20,000  Level New York Center
01:17PM 39.8811 -75.7511 236° Southwest 306 352 20,000  Level New York Center
01:18PM 39.8339 -75.8342 234° Southwest 300 345 20,000  Level New York Center
01:19PM 39.7903 -75.9258 238° Southwest 295 339 20,000  Level New York Center
01:20PM 39.7469 -76.0089 236° Southwest 295 339 20,000  Level New York Center
01:21PM 39.6972 -76.0969 234° Southwest 300 345 20,000 -60 Level New York Center
01:22PM 39.6517 -76.1825 235° Southwest 300 345 19,900 -720 Descending New York Center
01:23PM 39.6014 -76.2783 236° Southwest 292 336 18,700 -1,320 Descending New York Center
01:23PM 39.5833 -76.3000 223° Southwest 289 333 18,100 -3,240 Descending Potomac TRACON
01:24PM 39.5000 -76.3667 212° Southwest 309 356 13,900 -2,940 Descending Potomac TRACON
01:25PM 39.4333 -76.4333 218° Southwest 296 341 12,000 -1,260 Descending Potomac TRACON
01:26PM 39.3667 -76.5000 218° Southwest 297 342 11,400 -780 Descending Potomac TRACON
01:27PM 39.3000 -76.5500 210° Southwest 300 345 10,500 -720 Descending Potomac TRACON
01:28PM 39.2333 -76.6167 218° Southwest 284 327 10,000 -300 Descending Potomac TRACON
01:29PM 39.1667 -76.6667 210° Southwest 276 318 10,000  Level Potomac TRACON
01:30PM 39.1000 -76.7333 218° Southwest 274 315 10,000  Level Potomac TRACON
01:31PM 39.0500 -76.8000 226° Southwest 273 314 10,000 -960 Level Potomac TRACON
01:32PM 39.0000 -76.8667 226° Southwest 273 314 8,200 -1,860 Descending Potomac TRACON
01:33PM 38.9500 -76.9333 226° Southwest 269 310 6,300 -1,140 Descending Potomac TRACON
01:34PM 38.8833 -76.9500 191° South 236 272 6,000 -780 Descending Potomac TRACON
01:36PM 38.7500 -76.9500 180° South 208 239 4,000 -840 Descending Potomac TRACON
01:37PM 38.7000 -76.9333 165° South 177 204 3,500 -780 Descending Potomac TRACON
01:38PM 38.6500 -76.9333 180° South 181 208 2,500 -540 Descending Potomac TRACON
01:39PM 38.6000 -76.9333 180° South 179 206 2,500  Level Potomac TRACON
01:40PM 38.5667 -76.9500 201° Southwest 193 222 2,500  Level Potomac TRACON
01:41PM 38.5833 -77.0000 293° West 172 198 2,500  Level Potomac TRACON
01:42PM 38.6333 -77.0167 345° North 170 196 2,500  Level Potomac TRACON
01:43PM 38.6667 -77.0333 339° North 170 196 2,500 -120 Level Potomac TRACON
01:44PM 38.7167 -77.0333 360° North 168 193 2,300 -240 Descending Potomac TRACON